Charbonneau, Oregon
Current Conditions -  °F | °C
As of 10:53 AM on Sunday 23 Nov 2014 (Local Time) from KUAO Reporting Station
Overcast Overcast  
Wind Chill: 52°   Ceiling: 5500
Heat Index: 52°   Visibility: 10mi
Dew Point: 45°   Wind: 16mph
Humidity: 77%   Direction: 190°S
Pressure: 30.29"   Gusts: 28mph
Location:  45.309°N, 122.769°W
Report Text: KUAO 231853Z AUTO 19014G24KT 10SM OVC055 11/07 A3029 RMK AO2 PK WND 19026/1840 SLP258 T01110072
Loading
Personal Weather Stations






























Interactive Weather Map New forecast layout! Learn more

10-Day Weather Forecast

Advertisements
Track Severe Weather on mobile